createdAt,value
2023-02-16T00:01:33.705Z,4.40
2023-02-16T00:04:03.031Z,4.40
2023-02-16T00:06:31.693Z,4.40
2023-02-16T00:09:00.318Z,4.40
2023-02-16T00:11:50.463Z,4.30
2023-02-16T00:14:22.802Z,4.30
2023-02-16T00:16:51.988Z,4.30
2023-02-16T00:19:25.459Z,4.30
2023-02-16T00:21:55.666Z,4.30
2023-02-16T00:24:25.197Z,4.30
2023-02-16T00:26:54.653Z,4.30
2023-02-16T00:29:27.263Z,4.30
2023-02-16T00:31:57.094Z,4.40
2023-02-16T00:34:29.988Z,4.40
2023-02-16T00:36:59.766Z,4.40
2023-02-16T00:39:29.109Z,4.40
2023-02-16T00:42:01.258Z,4.40
2023-02-16T00:44:35.786Z,4.40
2023-02-16T00:47:12.027Z,4.40
2023-02-16T00:49:40.623Z,4.30
2023-02-16T00:52:39.336Z,4.30
2023-02-16T00:55:10.431Z,4.30
2023-02-16T00:57:42.405Z,4.30
2023-02-16T01:00:18.263Z,4.20
2023-02-16T01:02:48.864Z,4.20
2023-02-16T01:05:20.494Z,4.20
2023-02-16T01:08:06.868Z,4.20
2023-02-16T01:11:06.031Z,4.20
2023-02-16T01:13:39.377Z,4.20
2023-02-16T01:16:16.093Z,4.20
2023-02-16T01:18:44.665Z,4.20
2023-02-16T01:21:13.877Z,4.10
2023-02-16T01:23:42.502Z,4.10
2023-02-16T01:26:16.528Z,4.10
2023-02-16T01:28:45.603Z,4.10
2023-02-16T01:31:16.164Z,4.10
2023-02-16T01:33:45.323Z,4.00
2023-02-16T01:36:24.704Z,4.00
2023-02-16T01:38:53.418Z,4.00
2023-02-16T01:41:31.230Z,4.00
2023-02-16T01:44:04.327Z,3.90
2023-02-16T01:46:41.565Z,3.90
2023-02-16T01:49:15.112Z,3.90
2023-02-16T01:51:53.640Z,3.90
2023-02-16T01:54:34.654Z,3.90
2023-02-16T01:57:10.874Z,3.90
2023-02-16T02:00:04.667Z,3.90
2023-02-16T02:02:37.562Z,3.80
2023-02-16T02:05:31.523Z,3.80
2023-02-16T02:08:04.870Z,3.80
2023-02-16T02:10:42.032Z,3.80
2023-02-16T02:13:16.331Z,3.80
2023-02-16T02:15:44.890Z,3.80
2023-02-16T02:18:14.819Z,3.80
2023-02-16T02:21:11.310Z,3.80
2023-02-16T02:23:56.488Z,3.80
2023-02-16T02:27:01.199Z,3.80
2023-02-16T02:29:44.018Z,3.90
2023-02-16T02:32:22.165Z,3.90
2023-02-16T02:35:01.831Z,4.00
2023-02-16T02:37:44.588Z,3.90
2023-02-16T02:40:20.393Z,3.90
2023-02-16T02:43:00.371Z,3.90
2023-02-16T02:45:33.701Z,3.90
2023-02-16T02:48:02.248Z,4.00
2023-02-16T02:50:39.341Z,4.00
2023-02-16T02:53:13.250Z,3.90
2023-02-16T02:56:04.214Z,3.90
2023-02-16T02:58:53.385Z,3.90
2023-02-16T03:01:23.533Z,3.90
2023-02-16T03:03:56.561Z,3.90
2023-02-16T03:06:28.339Z,3.90
2023-02-16T03:09:01.162Z,3.80
2023-02-16T03:11:48.502Z,3.80
2023-02-16T03:14:23.739Z,3.80
2023-02-16T03:17:13.099Z,3.70
2023-02-16T03:20:01.027Z,3.70
2023-02-16T03:22:50.761Z,3.70
2023-02-16T03:25:37.070Z,3.60
2023-02-16T03:28:26.834Z,3.60
2023-02-16T03:30:57.989Z,3.60
2023-02-16T03:33:27.744Z,3.60
2023-02-16T03:35:56.856Z,3.60
2023-02-16T03:38:25.684Z,3.60
2023-02-16T03:40:54.534Z,3.60
2023-02-16T03:43:27.621Z,3.60
2023-02-16T03:45:57.643Z,3.60
2023-02-16T03:48:26.138Z,3.60
2023-02-16T03:50:54.852Z,3.60
2023-02-16T03:53:23.600Z,3.60
2023-02-16T03:55:52.133Z,3.60
2023-02-16T03:58:22.948Z,3.60
2023-02-16T04:00:51.864Z,3.60
2023-02-16T04:03:22.344Z,3.60
2023-02-16T04:05:50.853Z,3.60
2023-02-16T04:08:19.433Z,3.60
2023-02-16T04:10:47.933Z,3.60
2023-02-16T04:13:15.705Z,3.50
2023-02-16T04:15:44.203Z,3.50
2023-02-16T04:18:12.732Z,3.50
2023-02-16T04:20:42.735Z,3.50
2023-02-16T04:23:11.463Z,3.50
2023-02-16T04:25:42.233Z,3.50
2023-02-16T04:28:10.709Z,3.40
2023-02-16T04:30:39.211Z,3.40
2023-02-16T04:33:07.814Z,3.40
2023-02-16T04:35:36.357Z,3.40
2023-02-16T04:38:06.313Z,3.30
2023-02-16T04:40:35.028Z,3.30
2023-02-16T04:43:03.556Z,3.30
2023-02-16T04:45:32.041Z,3.30
2023-02-16T04:48:00.505Z,3.30
2023-02-16T04:50:29.344Z,3.30
2023-02-16T04:52:57.839Z,3.30
2023-02-16T04:55:27.735Z,3.30
2023-02-16T04:57:56.348Z,3.30
2023-02-16T05:00:25.295Z,3.30
2023-02-16T05:02:54.036Z,3.30
2023-02-16T05:05:22.627Z,3.30
2023-02-16T05:07:51.422Z,3.30
2023-02-16T05:10:20.149Z,3.30
2023-02-16T05:13:07.581Z,3.30
2023-02-16T05:15:36.241Z,3.30
2023-02-16T05:18:04.897Z,3.30
2023-02-16T05:20:49.476Z,3.30
2023-02-16T05:23:18.266Z,3.30
2023-02-16T05:25:46.836Z,3.30
2023-02-16T05:28:16.737Z,3.30
2023-02-16T05:30:45.294Z,3.30
2023-02-16T05:33:13.769Z,3.20
2023-02-16T05:35:42.289Z,3.20
2023-02-16T05:38:10.806Z,3.30
2023-02-16T05:40:39.602Z,3.20
2023-02-16T05:43:08.136Z,3.20
2023-02-16T05:45:40.398Z,3.20
2023-02-16T05:48:08.918Z,3.20
2023-02-16T05:50:37.845Z,3.20
2023-02-16T05:53:06.301Z,3.30
2023-02-16T05:55:35.006Z,3.30
2023-02-16T05:58:03.648Z,3.30
2023-02-16T06:00:33.970Z,3.30
2023-02-16T06:03:04.047Z,3.30
2023-02-16T06:05:33.205Z,3.30
2023-02-16T06:08:01.917Z,3.30
2023-02-16T06:10:30.466Z,3.40
2023-02-16T06:12:58.934Z,3.40
2023-02-16T06:15:27.951Z,3.40
2023-02-16T06:17:56.402Z,3.50
2023-02-16T06:20:26.442Z,3.50
2023-02-16T06:22:55.641Z,3.50
2023-02-16T06:25:24.618Z,3.60
2023-02-16T06:27:53.462Z,3.60
2023-02-16T06:30:22.454Z,3.60
2023-02-16T06:32:51.001Z,3.70
2023-02-16T06:35:20.222Z,3.70
2023-02-16T06:37:50.941Z,3.80
2023-02-16T06:40:19.752Z,3.80
2023-02-16T06:42:48.366Z,3.80
2023-02-16T06:45:16.938Z,3.90
2023-02-16T06:47:45.685Z,3.90
2023-02-16T06:50:15.008Z,4.00
2023-02-16T06:52:43.623Z,4.00
2023-02-16T06:55:13.864Z,4.00
2023-02-16T06:57:42.597Z,4.10
2023-02-16T07:00:12.098Z,4.10
2023-02-16T07:02:40.756Z,4.20
2023-02-16T07:05:10.411Z,4.30
2023-02-16T07:07:39.303Z,4.30
2023-02-16T07:10:09.514Z,4.30
2023-02-16T07:12:39.717Z,4.40
2023-02-16T07:15:09.265Z,4.40
2023-02-16T07:17:38.063Z,4.50
2023-02-16T07:20:08.219Z,4.50
2023-02-16T07:22:36.805Z,4.60
2023-02-16T07:25:05.476Z,4.60
2023-02-16T07:27:34.789Z,4.60
2023-02-16T07:30:05.336Z,4.70
2023-02-16T07:32:34.066Z,4.70
2023-02-16T07:35:02.649Z,4.80
2023-02-16T07:37:31.190Z,4.80
2023-02-16T07:39:59.834Z,4.90
2023-02-16T07:42:32.509Z,5.00
2023-02-16T07:45:01.481Z,5.00
2023-02-16T07:47:34.184Z,5.10
2023-02-16T07:50:02.849Z,5.10
2023-02-16T07:52:31.929Z,5.20
2023-02-16T07:55:01.125Z,5.30
2023-02-16T07:57:30.327Z,5.30
2023-02-16T07:59:59.019Z,5.40
2023-02-16T08:02:28.598Z,5.40
2023-02-16T08:04:58.842Z,5.50
2023-02-16T08:07:27.914Z,5.60
2023-02-16T08:09:56.575Z,5.70
2023-02-16T08:12:25.867Z,5.80
2023-02-16T08:14:56.411Z,5.90
2023-02-16T08:17:25.573Z,6.00
2023-02-16T08:19:54.195Z,6.10
2023-02-16T08:22:24.344Z,6.20
2023-02-16T08:24:54.105Z,6.30
2023-02-16T08:27:22.992Z,6.40
2023-02-16T08:29:52.232Z,6.50
2023-02-16T08:32:21.777Z,6.60
2023-02-16T08:34:51.435Z,6.60
2023-02-16T08:37:20.510Z,6.70
2023-02-16T08:39:50.590Z,6.80
2023-02-16T08:42:19.257Z,6.80
2023-02-16T08:44:48.036Z,6.90
2023-02-16T08:47:20.194Z,6.90
2023-02-16T08:49:49.086Z,6.90
2023-02-16T08:52:18.282Z,7.00
2023-02-16T08:54:46.863Z,7.00
2023-02-16T08:57:18.736Z,7.00
2023-02-16T09:00:07.573Z,7.00
2023-02-16T09:02:36.243Z,7.00
2023-02-16T09:05:05.898Z,7.00
2023-02-16T09:07:35.248Z,7.00
2023-02-16T09:10:04.471Z,7.10
2023-02-16T09:12:35.572Z,7.10
2023-02-16T09:15:04.689Z,7.20
2023-02-16T09:17:33.204Z,7.30
2023-02-16T09:20:04.609Z,7.40
2023-02-16T09:22:33.534Z,7.50
2023-02-16T09:25:02.161Z,7.60
2023-02-16T09:27:31.406Z,7.70
2023-02-16T09:30:01.506Z,7.80
2023-02-16T09:32:30.768Z,8.00
2023-02-16T09:35:01.100Z,8.10
2023-02-16T09:37:30.305Z,8.20
2023-02-16T09:39:58.872Z,8.30
2023-02-16T09:42:35.476Z,8.50
2023-02-16T09:45:11.594Z,8.60
2023-02-16T09:47:45.271Z,8.80
2023-02-16T09:50:27.681Z,8.90
2023-02-16T09:53:08.814Z,9.10
2023-02-16T09:55:46.647Z,9.20
2023-02-16T09:58:25.108Z,9.30
2023-02-16T10:01:03.294Z,9.30
2023-02-16T10:03:46.522Z,9.30
2023-02-16T10:06:31.241Z,9.30
2023-02-16T10:09:04.499Z,9.30
2023-02-16T10:11:46.909Z,9.20
2023-02-16T10:14:26.368Z,9.20
2023-02-16T10:17:03.417Z,9.20
2023-02-16T10:19:39.695Z,9.10
2023-02-16T10:22:17.309Z,9.10
2023-02-16T10:24:56.420Z,9.00
2023-02-16T10:27:27.276Z,9.00
2023-02-16T10:29:56.400Z,9.00
2023-02-16T10:32:33.959Z,9.00
2023-02-16T10:35:15.438Z,8.90
2023-02-16T10:37:57.126Z,8.90
2023-02-16T10:40:35.477Z,8.90
2023-02-16T10:43:14.331Z,8.90
2023-02-16T10:45:51.940Z,8.90
2023-02-16T10:48:24.968Z,9.00
2023-02-16T10:50:59.918Z,9.00
2023-02-16T10:53:38.612Z,9.00
2023-02-16T10:56:38.656Z,9.10
2023-02-16T10:59:09.293Z,9.10
2023-02-16T11:01:41.068Z,9.20
2023-02-16T11:04:32.144Z,9.20
2023-02-16T11:07:06.222Z,9.30
2023-02-16T11:09:34.855Z,9.40
2023-02-16T11:12:15.529Z,9.40
2023-02-16T11:14:51.255Z,9.50
2023-02-16T11:17:21.831Z,9.50
2023-02-16T11:19:55.312Z,9.50
2023-02-16T11:22:31.479Z,9.60
2023-02-16T11:25:27.245Z,9.60
2023-02-16T11:27:59.105Z,9.70
2023-02-16T11:30:34.735Z,9.80
2023-02-16T11:33:05.928Z,9.80
2023-02-16T11:35:44.004Z,9.90
2023-02-16T11:38:29.336Z,10.00
2023-02-16T11:40:59.563Z,10.00
2023-02-16T11:43:31.395Z,10.00
2023-02-16T11:46:03.773Z,10.00
2023-02-16T11:48:34.494Z,10.00
2023-02-16T11:51:07.062Z,9.90
2023-02-16T11:53:37.524Z,9.90
2023-02-16T11:56:25.120Z,9.80
2023-02-16T11:59:17.342Z,9.70
2023-02-16T12:02:07.061Z,9.60
2023-02-16T12:04:52.527Z,9.50
2023-02-16T12:07:31.644Z,9.50
2023-02-16T12:10:06.306Z,9.40
2023-02-16T12:12:43.325Z,9.30
2023-02-16T12:15:22.607Z,9.20
2023-02-16T12:18:07.934Z,9.10
2023-02-16T12:20:47.039Z,8.90
2023-02-16T12:23:36.317Z,8.90
2023-02-16T12:26:27.969Z,8.80
2023-02-16T12:29:07.013Z,8.80
2023-02-16T12:31:50.843Z,8.90
2023-02-16T12:34:26.894Z,8.90
2023-02-16T12:37:01.871Z,8.90
2023-02-16T12:39:46.066Z,9.00
2023-02-16T12:42:39.575Z,9.00
2023-02-16T12:45:17.530Z,9.10
2023-02-16T12:47:54.394Z,9.20
2023-02-16T12:50:27.443Z,9.20
2023-02-16T12:53:00.422Z,9.30
2023-02-16T12:55:38.398Z,9.40
2023-02-16T12:58:19.365Z,9.40
2023-02-16T13:00:51.273Z,9.30
2023-02-16T13:03:29.258Z,9.30
2023-02-16T13:06:09.605Z,9.20
2023-02-16T13:08:42.781Z,9.10
2023-02-16T13:11:21.171Z,9.10
2023-02-16T13:13:53.613Z,9.00
2023-02-16T13:16:30.884Z,9.00
2023-02-16T13:19:00.097Z,8.90
2023-02-16T13:21:51.170Z,8.90
2023-02-16T13:24:31.986Z,8.90
2023-02-16T13:27:12.202Z,8.90
2023-02-16T13:30:10.689Z,8.90
2023-02-16T13:33:08.529Z,8.90
2023-02-16T13:36:07.849Z,8.90
2023-02-16T13:39:06.193Z,8.90
2023-02-16T13:42:00.476Z,8.90
2023-02-16T13:44:38.134Z,8.90
2023-02-16T13:47:08.384Z,8.80
2023-02-16T13:49:43.307Z,8.70
2023-02-16T13:52:12.895Z,8.60
2023-02-16T13:54:43.963Z,8.60
2023-02-16T13:57:14.193Z,8.50
2023-02-16T13:59:59.762Z,8.40
2023-02-16T14:02:58.771Z,8.40
2023-02-16T14:05:34.416Z,8.40
2023-02-16T14:08:29.891Z,8.40
2023-02-16T14:11:11.533Z,8.50
2023-02-16T14:13:52.058Z,8.50
2023-02-16T14:16:32.087Z,8.50
2023-02-16T14:19:07.342Z,8.50
2023-02-16T14:21:42.246Z,8.40
2023-02-16T14:24:15.088Z,8.40
2023-02-16T14:27:04.554Z,8.50
2023-02-16T14:29:38.873Z,8.60
2023-02-16T14:32:25.819Z,8.60
2023-02-16T14:34:59.962Z,8.70
2023-02-16T14:37:37.829Z,8.80
2023-02-16T14:40:22.636Z,8.80
2023-02-16T14:42:58.650Z,8.80
2023-02-16T14:46:06.033Z,8.90
2023-02-16T14:49:06.727Z,8.90
2023-02-16T14:52:02.340Z,8.90
2023-02-16T14:55:12.343Z,8.90
2023-02-16T14:57:49.616Z,8.90
2023-02-16T15:00:25.261Z,8.90
2023-02-16T15:03:04.558Z,8.90
2023-02-16T15:05:38.030Z,8.90
2023-02-16T15:08:16.883Z,8.90
2023-02-16T15:10:47.922Z,8.80
2023-02-16T15:13:22.466Z,8.80
2023-02-16T15:15:56.221Z,8.80
2023-02-16T15:18:28.916Z,8.70
2023-02-16T15:20:59.543Z,8.70
2023-02-16T15:23:30.667Z,8.70
2023-02-16T15:26:01.956Z,8.60
2023-02-16T15:28:34.089Z,8.60
2023-02-16T15:31:05.998Z,8.70
2023-02-16T15:33:39.662Z,8.70
2023-02-16T15:36:13.691Z,8.70
2023-02-16T15:38:45.306Z,8.70
2023-02-16T15:41:16.729Z,8.70
2023-02-16T15:43:48.775Z,8.70
2023-02-16T15:46:29.685Z,8.80
2023-02-16T15:48:59.679Z,8.80
2023-02-16T15:51:32.807Z,8.80
2023-02-16T15:54:05.093Z,8.80
2023-02-16T15:56:42.437Z,8.80
2023-02-16T15:59:35.859Z,8.70
2023-02-16T16:02:13.602Z,8.70
2023-02-16T16:04:45.829Z,8.70
2023-02-16T16:07:20.415Z,8.70
2023-02-16T16:09:49.826Z,8.70
2023-02-16T16:12:21.278Z,8.70
2023-02-16T16:14:54.695Z,8.70
2023-02-16T16:17:28.600Z,8.60
2023-02-16T16:19:58.285Z,8.60
2023-02-16T16:22:38.604Z,8.60
2023-02-16T16:25:49.373Z,8.60
2023-02-16T16:28:36.970Z,8.50
2023-02-16T16:31:10.969Z,8.50
2023-02-16T16:33:57.357Z,8.50
2023-02-16T16:36:31.250Z,8.50
2023-02-16T16:39:26.909Z,8.50
2023-02-16T16:42:16.404Z,8.50
2023-02-16T16:44:48.075Z,8.50
2023-02-16T16:47:25.984Z,8.50
2023-02-16T16:49:57.150Z,8.60
2023-02-16T16:52:35.272Z,8.60
2023-02-16T16:55:25.059Z,8.60
2023-02-16T16:57:56.198Z,8.70
2023-02-16T17:00:27.670Z,8.70
2023-02-16T17:02:57.744Z,8.70
2023-02-16T17:05:26.539Z,8.80
2023-02-16T17:07:55.528Z,8.80
2023-02-16T17:10:26.247Z,8.80
2023-02-16T17:12:59.335Z,8.80
2023-02-16T17:15:39.519Z,8.80
2023-02-16T17:18:08.680Z,8.80
2023-02-16T17:20:37.894Z,8.80
2023-02-16T17:23:06.692Z,8.80
2023-02-16T17:25:37.327Z,8.80
2023-02-16T17:28:06.961Z,8.90
2023-02-16T17:30:36.587Z,8.90
2023-02-16T17:33:07.278Z,8.90
2023-02-16T17:35:38.065Z,8.90
2023-02-16T17:38:12.111Z,8.90
2023-02-16T17:40:44.040Z,8.90
2023-02-16T17:43:16.827Z,8.90
2023-02-16T17:45:46.174Z,9.00
2023-02-16T17:48:18.607Z,9.00
2023-02-16T17:50:48.337Z,9.00
2023-02-16T17:53:19.602Z,9.00
2023-02-16T17:55:52.022Z,9.00
2023-02-16T17:58:23.126Z,9.10
2023-02-16T18:00:52.632Z,9.10
2023-02-16T18:03:23.247Z,9.10
2023-02-16T18:05:52.494Z,9.10
2023-02-16T18:08:21.410Z,9.20
2023-02-16T18:10:54.710Z,9.20
2023-02-16T18:13:23.815Z,9.20
2023-02-16T18:15:52.685Z,9.20
2023-02-16T18:18:22.122Z,9.20
2023-02-16T18:20:53.181Z,9.20
2023-02-16T18:23:21.922Z,9.20
2023-02-16T18:25:53.263Z,9.20
2023-02-16T18:28:28.166Z,9.20
2023-02-16T18:30:57.261Z,9.20
2023-02-16T18:33:26.590Z,9.20
2023-02-16T18:35:59.092Z,9.20
2023-02-16T18:38:28.476Z,9.20
2023-02-16T18:40:58.809Z,9.20
2023-02-16T18:43:29.026Z,9.20
2023-02-16T18:45:58.166Z,9.30
2023-02-16T18:48:27.922Z,9.40
2023-02-16T18:50:57.030Z,9.50
2023-02-16T18:53:26.227Z,9.60
2023-02-16T18:55:55.257Z,9.60
2023-02-16T18:58:28.083Z,9.60
2023-02-16T19:00:57.299Z,9.60
2023-02-16T19:03:27.672Z,9.60
2023-02-16T19:05:58.120Z,9.60
2023-02-16T19:08:27.204Z,9.60
2023-02-16T19:10:56.723Z,9.70
2023-02-16T19:13:27.006Z,9.70
2023-02-16T19:15:56.295Z,9.70
2023-02-16T19:18:26.901Z,9.70
2023-02-16T19:20:56.536Z,9.80
2023-02-16T19:23:25.838Z,9.80
2023-02-16T19:25:57.595Z,9.80
2023-02-16T19:28:28.260Z,9.80
2023-02-16T19:31:02.686Z,9.80
2023-02-16T19:33:32.831Z,9.80
2023-02-16T19:36:10.616Z,9.70
2023-02-16T19:38:40.580Z,9.50
2023-02-16T19:41:16.705Z,9.40
2023-02-16T19:43:50.810Z,9.30
2023-02-16T19:46:20.361Z,9.30
2023-02-16T19:48:49.325Z,9.20
2023-02-16T19:51:19.778Z,9.10
2023-02-16T19:53:50.160Z,9.10
2023-02-16T19:56:24.806Z,9.00
2023-02-16T19:58:59.850Z,9.00
2023-02-16T20:01:32.237Z,9.00
2023-02-16T20:04:06.401Z,9.00
2023-02-16T20:06:42.608Z,9.00
2023-02-16T20:09:13.860Z,8.90
2023-02-16T20:11:43.425Z,9.00
2023-02-16T20:14:14.842Z,9.00
2023-02-16T20:16:44.104Z,9.00
2023-02-16T20:19:13.248Z,9.00
2023-02-16T20:21:44.555Z,9.00
2023-02-16T20:24:19.788Z,9.00
2023-02-16T20:26:51.539Z,9.00
2023-02-16T20:29:22.551Z,9.00
2023-02-16T20:31:54.661Z,9.00
2023-02-16T20:34:25.764Z,9.00
2023-02-16T20:36:59.228Z,9.00
2023-02-16T20:39:28.503Z,9.00
2023-02-16T20:41:58.665Z,9.00
2023-02-16T20:44:29.495Z,9.00
2023-02-16T20:46:59.429Z,9.00
2023-02-16T20:49:28.645Z,9.00
2023-02-16T20:52:03.882Z,9.00
2023-02-16T20:54:37.573Z,9.00
2023-02-16T20:57:15.495Z,9.10
2023-02-16T20:59:52.224Z,9.10
2023-02-16T21:02:22.740Z,9.10
2023-02-16T21:04:54.634Z,9.10
2023-02-16T21:07:23.598Z,9.10
2023-02-16T21:09:52.839Z,9.10
2023-02-16T21:12:22.150Z,9.10
2023-02-16T21:14:53.651Z,9.00
2023-02-16T21:17:23.471Z,9.00
2023-02-16T21:19:53.066Z,9.00
2023-02-16T21:22:24.784Z,9.00
2023-02-16T21:24:53.830Z,9.00
2023-02-16T21:27:25.249Z,9.00
2023-02-16T21:29:55.621Z,9.00
2023-02-16T21:32:26.531Z,8.90
2023-02-16T21:34:55.796Z,8.90
2023-02-16T21:37:24.856Z,8.90
2023-02-16T21:40:22.430Z,8.90
2023-02-16T21:42:54.239Z,8.90
2023-02-16T21:45:25.247Z,8.90
2023-02-16T21:48:11.158Z,8.90
2023-02-16T21:50:46.884Z,8.90
2023-02-16T21:53:16.230Z,8.90
2023-02-16T21:56:02.886Z,8.80
2023-02-16T21:58:35.713Z,8.80
2023-02-16T22:01:06.740Z,8.80
2023-02-16T22:03:35.593Z,8.80
2023-02-16T22:06:05.075Z,8.80
2023-02-16T22:08:38.837Z,8.80
2023-02-16T22:11:09.101Z,8.80
2023-02-16T22:13:38.403Z,8.80
2023-02-16T22:16:18.129Z,8.80
2023-02-16T22:18:47.897Z,8.80
2023-02-16T22:21:17.560Z,8.80
2023-02-16T22:23:49.676Z,8.90
2023-02-16T22:26:23.927Z,8.90
2023-02-16T22:28:53.498Z,8.90
2023-02-16T22:31:25.871Z,8.90
2023-02-16T22:33:58.570Z,8.90
2023-02-16T22:36:27.200Z,8.90
2023-02-16T22:38:56.550Z,9.00
2023-02-16T22:41:25.680Z,9.00
2023-02-16T22:43:55.346Z,9.00
2023-02-16T22:46:27.784Z,9.00
2023-02-16T22:48:58.627Z,9.10
2023-02-16T22:51:29.528Z,9.10
2023-02-16T22:53:59.925Z,9.10
2023-02-16T22:56:31.209Z,9.10
2023-02-16T22:59:01.291Z,9.10
2023-02-16T23:01:32.465Z,9.20
2023-02-16T23:04:02.362Z,9.20
2023-02-16T23:06:33.548Z,9.20
2023-02-16T23:09:06.935Z,9.20
2023-02-16T23:11:36.904Z,9.20
2023-02-16T23:14:05.763Z,9.30
2023-02-16T23:16:35.743Z,9.30
2023-02-16T23:19:04.714Z,9.30
2023-02-16T23:21:34.462Z,9.30
2023-02-16T23:24:03.016Z,9.30
2023-02-16T23:26:34.429Z,9.30
2023-02-16T23:29:03.963Z,9.30
2023-02-16T23:31:38.957Z,9.30
2023-02-16T23:34:08.441Z,9.30
2023-02-16T23:36:38.661Z,9.40
2023-02-16T23:39:09.586Z,9.30
2023-02-16T23:41:38.711Z,9.40
2023-02-16T23:44:08.059Z,9.40
2023-02-16T23:46:38.125Z,9.40
2023-02-16T23:49:06.831Z,9.40
2023-02-16T23:51:35.780Z,9.40
2023-02-16T23:54:04.397Z,9.40
2023-02-16T23:56:33.120Z,9.40
2023-02-16T23:59:02.309Z,9.40
